sensor_id;sensor_type;location;lat;lon;timestamp;temperature;humidity
20658;DHT22;10488;50.846;4.078;2023-07-22T00:01:14;16.00;99.90
20658;DHT22;10488;50.846;4.078;2023-07-22T00:03:40;15.90;99.90
20658;DHT22;10488;50.846;4.078;2023-07-22T00:06:10;15.70;99.90
20658;DHT22;10488;50.846;4.078;2023-07-22T00:08:37;15.80;99.90
20658;DHT22;10488;50.846;4.078;2023-07-22T00:11:04;15.90;99.90
20658;DHT22;10488;50.846;4.078;2023-07-22T00:13:30;15.80;99.90
20658;DHT22;10488;50.846;4.078;2023-07-22T00:15:56;15.90;99.90
20658;DHT22;10488;50.846;4.078;2023-07-22T00:18:22;15.90;99.90
20658;DHT22;10488;50.846;4.078;2023-07-22T00:20:49;15.90;99.90
20658;DHT22;10488;50.846;4.078;2023-07-22T00:23:15;15.90;99.90
20658;DHT22;10488;50.846;4.078;2023-07-22T00:25:41;15.80;99.90
20658;DHT22;10488;50.846;4.078;2023-07-22T00:28:07;15.80;99.90
20658;DHT22;10488;50.846;4.078;2023-07-22T00:30:33;15.80;99.90
20658;DHT22;10488;50.846;4.078;2023-07-22T00:33:00;15.80;99.90
20658;DHT22;10488;50.846;4.078;2023-07-22T00:35:26;15.80;99.90
20658;DHT22;10488;50.846;4.078;2023-07-22T00:37:52;15.80;99.90
20658;DHT22;10488;50.846;4.078;2023-07-22T00:40:18;15.90;99.90
20658;DHT22;10488;50.846;4.078;2023-07-22T00:42:44;16.00;99.90
20658;DHT22;10488;50.846;4.078;2023-07-22T00:45:10;15.90;99.90
20658;DHT22;10488;50.846;4.078;2023-07-22T00:47:36;16.00;99.90
20658;DHT22;10488;50.846;4.078;2023-07-22T00:50:03;15.90;99.90
20658;DHT22;10488;50.846;4.078;2023-07-22T00:52:32;15.90;99.90
20658;DHT22;10488;50.846;4.078;2023-07-22T00:54:58;15.60;99.90
20658;DHT22;10488;50.846;4.078;2023-07-22T00:57:24;15.70;99.90
20658;DHT22;10488;50.846;4.078;2023-07-22T00:59:50;15.70;99.90
20658;DHT22;10488;50.846;4.078;2023-07-22T01:02:16;15.50;99.90
20658;DHT22;10488;50.846;4.078;2023-07-22T01:04:43;15.40;99.90
20658;DHT22;10488;50.846;4.078;2023-07-22T01:07:09;15.50;99.90
20658;DHT22;10488;50.846;4.078;2023-07-22T01:09:39;15.50;99.90
20658;DHT22;10488;50.846;4.078;2023-07-22T01:12:05;15.40;99.90
20658;DHT22;10488;50.846;4.078;2023-07-22T01:14:39;15.50;99.90
20658;DHT22;10488;50.846;4.078;2023-07-22T01:17:07;15.40;99.90
20658;DHT22;10488;50.846;4.078;2023-07-22T01:19:33;15.30;99.90
20658;DHT22;10488;50.846;4.078;2023-07-22T01:22:01;15.40;99.90
20658;DHT22;10488;50.846;4.078;2023-07-22T01:24:28;15.50;99.90
20658;DHT22;10488;50.846;4.078;2023-07-22T01:26:55;15.40;99.90
20658;DHT22;10488;50.846;4.078;2023-07-22T01:29:22;15.20;99.90
20658;DHT22;10488;50.846;4.078;2023-07-22T01:31:53;15.20;99.90
20658;DHT22;10488;50.846;4.078;2023-07-22T01:34:20;15.10;99.90
20658;DHT22;10488;50.846;4.078;2023-07-22T01:36:46;15.20;99.90
20658;DHT22;10488;50.846;4.078;2023-07-22T01:39:15;15.10;99.90
20658;DHT22;10488;50.846;4.078;2023-07-22T01:41:42;15.20;99.90
20658;DHT22;10488;50.846;4.078;2023-07-22T01:44:07;15.20;99.90
20658;DHT22;10488;50.846;4.078;2023-07-22T01:46:33;15.20;99.90
20658;DHT22;10488;50.846;4.078;2023-07-22T01:49:01;15.40;99.90
20658;DHT22;10488;50.846;4.078;2023-07-22T01:51:27;15.20;99.90
20658;DHT22;10488;50.846;4.078;2023-07-22T01:53:53;15.20;99.90
20658;DHT22;10488;50.846;4.078;2023-07-22T01:56:18;15.00;99.90
20658;DHT22;10488;50.846;4.078;2023-07-22T01:58:46;15.00;99.90
20658;DHT22;10488;50.846;4.078;2023-07-22T02:01:11;15.00;99.90
20658;DHT22;10488;50.846;4.078;2023-07-22T02:03:40;15.10;99.90
20658;DHT22;10488;50.846;4.078;2023-07-22T02:06:06;15.00;99.90
20658;DHT22;10488;50.846;4.078;2023-07-22T02:08:32;15.10;99.90
20658;DHT22;10488;50.846;4.078;2023-07-22T02:11:03;14.90;99.90
20658;DHT22;10488;50.846;4.078;2023-07-22T02:13:33;14.80;99.90
20658;DHT22;10488;50.846;4.078;2023-07-22T02:15:59;14.70;99.90
20658;DHT22;10488;50.846;4.078;2023-07-22T02:18:25;14.70;99.90
20658;DHT22;10488;50.846;4.078;2023-07-22T02:20:51;14.60;99.90
20658;DHT22;10488;50.846;4.078;2023-07-22T02:23:16;14.50;99.90
20658;DHT22;10488;50.846;4.078;2023-07-22T02:25:43;14.40;99.90
20658;DHT22;10488;50.846;4.078;2023-07-22T02:28:09;14.30;99.90
20658;DHT22;10488;50.846;4.078;2023-07-22T02:30:36;14.20;99.90
20658;DHT22;10488;50.846;4.078;2023-07-22T02:33:04;14.30;99.90
20658;DHT22;10488;50.846;4.078;2023-07-22T02:35:30;14.30;99.90
20658;DHT22;10488;50.846;4.078;2023-07-22T02:37:56;14.30;99.90
20658;DHT22;10488;50.846;4.078;2023-07-22T02:40:22;14.30;99.90
20658;DHT22;10488;50.846;4.078;2023-07-22T02:42:47;14.30;99.90
20658;DHT22;10488;50.846;4.078;2023-07-22T02:45:13;14.20;99.90
20658;DHT22;10488;50.846;4.078;2023-07-22T02:47:38;14.10;99.90
20658;DHT22;10488;50.846;4.078;2023-07-22T02:50:05;14.20;99.90
20658;DHT22;10488;50.846;4.078;2023-07-22T02:52:31;14.00;99.90
20658;DHT22;10488;50.846;4.078;2023-07-22T02:55:10;14.10;99.90
20658;DHT22;10488;50.846;4.078;2023-07-22T02:57:39;14.00;99.90
20658;DHT22;10488;50.846;4.078;2023-07-22T03:00:06;14.00;99.90
20658;DHT22;10488;50.846;4.078;2023-07-22T03:02:37;14.00;99.90
20658;DHT22;10488;50.846;4.078;2023-07-22T03:05:04;14.00;99.90
20658;DHT22;10488;50.846;4.078;2023-07-22T03:07:37;13.90;99.90
20658;DHT22;10488;50.846;4.078;2023-07-22T03:10:06;13.80;99.90
20658;DHT22;10488;50.846;4.078;2023-07-22T03:12:33;13.90;99.90
20658;DHT22;10488;50.846;4.078;2023-07-22T03:14:59;13.90;99.90
20658;DHT22;10488;50.846;4.078;2023-07-22T03:17:24;13.80;99.90
20658;DHT22;10488;50.846;4.078;2023-07-22T03:19:50;13.90;99.90
20658;DHT22;10488;50.846;4.078;2023-07-22T03:22:17;13.90;99.90
20658;DHT22;10488;50.846;4.078;2023-07-22T03:24:46;14.00;99.90
20658;DHT22;10488;50.846;4.078;2023-07-22T03:27:12;14.00;99.90
20658;DHT22;10488;50.846;4.078;2023-07-22T03:29:39;14.00;99.90
20658;DHT22;10488;50.846;4.078;2023-07-22T03:32:05;14.00;99.90
20658;DHT22;10488;50.846;4.078;2023-07-22T03:34:31;14.00;99.90
20658;DHT22;10488;50.846;4.078;2023-07-22T03:36:57;14.10;99.90
20658;DHT22;10488;50.846;4.078;2023-07-22T03:39:24;14.20;99.90
20658;DHT22;10488;50.846;4.078;2023-07-22T03:41:50;14.30;99.90
20658;DHT22;10488;50.846;4.078;2023-07-22T03:44:16;14.30;99.90
20658;DHT22;10488;50.846;4.078;2023-07-22T03:46:41;14.50;99.90
20658;DHT22;10488;50.846;4.078;2023-07-22T03:49:07;14.40;99.90
20658;DHT22;10488;50.846;4.078;2023-07-22T03:51:33;14.40;99.90
20658;DHT22;10488;50.846;4.078;2023-07-22T03:53:59;14.30;99.90
20658;DHT22;10488;50.846;4.078;2023-07-22T03:56:25;14.20;99.90
20658;DHT22;10488;50.846;4.078;2023-07-22T03:58:51;14.20;99.90
20658;DHT22;10488;50.846;4.078;2023-07-22T04:01:17;14.20;99.90
20658;DHT22;10488;50.846;4.078;2023-07-22T04:03:42;14.10;99.90
20658;DHT22;10488;50.846;4.078;2023-07-22T04:06:08;14.10;99.90
20658;DHT22;10488;50.846;4.078;2023-07-22T04:08:34;14.20;99.90
20658;DHT22;10488;50.846;4.078;2023-07-22T04:10:59;14.20;99.90
20658;DHT22;10488;50.846;4.078;2023-07-22T04:13:26;14.00;99.90
20658;DHT22;10488;50.846;4.078;2023-07-22T04:15:52;14.10;99.90
20658;DHT22;10488;50.846;4.078;2023-07-22T04:18:18;14.10;99.90
20658;DHT22;10488;50.846;4.078;2023-07-22T04:20:45;14.10;99.90
20658;DHT22;10488;50.846;4.078;2023-07-22T04:23:11;14.00;99.90
20658;DHT22;10488;50.846;4.078;2023-07-22T04:25:43;14.00;99.90
20658;DHT22;10488;50.846;4.078;2023-07-22T04:28:10;14.00;99.90
20658;DHT22;10488;50.846;4.078;2023-07-22T04:30:37;14.00;99.90
20658;DHT22;10488;50.846;4.078;2023-07-22T04:33:03;13.90;99.90
20658;DHT22;10488;50.846;4.078;2023-07-22T04:35:36;13.90;99.90
20658;DHT22;10488;50.846;4.078;2023-07-22T04:38:02;14.00;99.90
20658;DHT22;10488;50.846;4.078;2023-07-22T04:40:28;14.00;99.90
20658;DHT22;10488;50.846;4.078;2023-07-22T04:42:56;14.00;99.90
20658;DHT22;10488;50.846;4.078;2023-07-22T04:45:22;14.00;99.90
20658;DHT22;10488;50.846;4.078;2023-07-22T04:47:52;14.10;99.90
20658;DHT22;10488;50.846;4.078;2023-07-22T04:50:18;14.20;99.90
20658;DHT22;10488;50.846;4.078;2023-07-22T04:52:47;14.20;99.90
20658;DHT22;10488;50.846;4.078;2023-07-22T04:55:13;14.10;99.90
20658;DHT22;10488;50.846;4.078;2023-07-22T04:57:40;14.30;99.90
20658;DHT22;10488;50.846;4.078;2023-07-22T05:00:08;14.30;99.90
20658;DHT22;10488;50.846;4.078;2023-07-22T05:02:45;14.10;99.90
20658;DHT22;10488;50.846;4.078;2023-07-22T05:05:15;14.10;99.90
20658;DHT22;10488;50.846;4.078;2023-07-22T05:07:41;14.20;99.90
20658;DHT22;10488;50.846;4.078;2023-07-22T05:10:07;14.10;99.90
20658;DHT22;10488;50.846;4.078;2023-07-22T05:12:38;14.10;99.90
20658;DHT22;10488;50.846;4.078;2023-07-22T05:15:05;14.30;99.90
20658;DHT22;10488;50.846;4.078;2023-07-22T05:17:30;14.30;99.90
20658;DHT22;10488;50.846;4.078;2023-07-22T05:19:57;14.30;99.90
20658;DHT22;10488;50.846;4.078;2023-07-22T05:22:23;14.50;99.90
20658;DHT22;10488;50.846;4.078;2023-07-22T05:24:49;14.50;99.90
20658;DHT22;10488;50.846;4.078;2023-07-22T05:27:15;14.50;99.90
20658;DHT22;10488;50.846;4.078;2023-07-22T05:29:41;14.70;99.90
20658;DHT22;10488;50.846;4.078;2023-07-22T05:32:07;15.00;99.90
20658;DHT22;10488;50.846;4.078;2023-07-22T05:34:33;15.20;99.90
20658;DHT22;10488;50.846;4.078;2023-07-22T05:36:58;15.20;99.90
20658;DHT22;10488;50.846;4.078;2023-07-22T05:39:24;15.20;99.90
20658;DHT22;10488;50.846;4.078;2023-07-22T05:41:50;15.30;99.90
20658;DHT22;10488;50.846;4.078;2023-07-22T05:44:16;15.60;99.90
20658;DHT22;10488;50.846;4.078;2023-07-22T05:46:42;15.70;99.90
20658;DHT22;10488;50.846;4.078;2023-07-22T05:49:08;15.80;99.90
20658;DHT22;10488;50.846;4.078;2023-07-22T05:51:34;15.60;99.90
20658;DHT22;10488;50.846;4.078;2023-07-22T05:53:59;15.70;99.90
20658;DHT22;10488;50.846;4.078;2023-07-22T05:56:27;15.60;99.90
20658;DHT22;10488;50.846;4.078;2023-07-22T05:58:53;15.70;99.90
20658;DHT22;10488;50.846;4.078;2023-07-22T06:01:19;16.20;99.90
20658;DHT22;10488;50.846;4.078;2023-07-22T06:03:45;16.20;99.90
20658;DHT22;10488;50.846;4.078;2023-07-22T06:06:11;16.10;99.90
20658;DHT22;10488;50.846;4.078;2023-07-22T06:08:37;16.20;99.90
20658;DHT22;10488;50.846;4.078;2023-07-22T06:11:02;16.40;99.90
20658;DHT22;10488;50.846;4.078;2023-07-22T06:13:28;16.10;99.90
20658;DHT22;10488;50.846;4.078;2023-07-22T06:15:54;16.00;99.90
20658;DHT22;10488;50.846;4.078;2023-07-22T06:18:19;16.20;99.90
20658;DHT22;10488;50.846;4.078;2023-07-22T06:20:45;16.30;99.90
20658;DHT22;10488;50.846;4.078;2023-07-22T06:23:11;16.30;99.90
20658;DHT22;10488;50.846;4.078;2023-07-22T06:25:37;16.30;99.90
20658;DHT22;10488;50.846;4.078;2023-07-22T06:28:02;16.20;99.90
20658;DHT22;10488;50.846;4.078;2023-07-22T06:30:28;16.00;99.90
20658;DHT22;10488;50.846;4.078;2023-07-22T06:32:54;15.80;99.90
20658;DHT22;10488;50.846;4.078;2023-07-22T06:35:20;16.00;99.90
20658;DHT22;10488;50.846;4.078;2023-07-22T06:37:45;16.00;99.90
20658;DHT22;10488;50.846;4.078;2023-07-22T06:40:11;16.10;99.90
20658;DHT22;10488;50.846;4.078;2023-07-22T06:42:37;16.10;99.90
20658;DHT22;10488;50.846;4.078;2023-07-22T06:45:04;16.10;99.90
20658;DHT22;10488;50.846;4.078;2023-07-22T06:47:29;16.30;99.90
20658;DHT22;10488;50.846;4.078;2023-07-22T06:49:55;16.40;99.90
20658;DHT22;10488;50.846;4.078;2023-07-22T06:52:21;16.40;99.90
20658;DHT22;10488;50.846;4.078;2023-07-22T06:54:46;16.30;99.90
20658;DHT22;10488;50.846;4.078;2023-07-22T06:57:12;16.60;99.90
20658;DHT22;10488;50.846;4.078;2023-07-22T06:59:38;16.80;99.90
20658;DHT22;10488;50.846;4.078;2023-07-22T07:02:04;16.60;99.90
20658;DHT22;10488;50.846;4.078;2023-07-22T07:04:33;16.70;99.90
20658;DHT22;10488;50.846;4.078;2023-07-22T07:06:59;17.10;99.90
20658;DHT22;10488;50.846;4.078;2023-07-22T07:09:24;17.90;99.90
20658;DHT22;10488;50.846;4.078;2023-07-22T07:11:51;17.90;99.90
20658;DHT22;10488;50.846;4.078;2023-07-22T07:14:17;18.60;99.90
20658;DHT22;10488;50.846;4.078;2023-07-22T07:16:44;18.50;99.90
20658;DHT22;10488;50.846;4.078;2023-07-22T07:19:09;18.40;99.90
20658;DHT22;10488;50.846;4.078;2023-07-22T07:21:35;18.30;99.90
20658;DHT22;10488;50.846;4.078;2023-07-22T07:24:01;17.80;99.90
20658;DHT22;10488;50.846;4.078;2023-07-22T07:26:27;18.20;99.90
20658;DHT22;10488;50.846;4.078;2023-07-22T07:28:53;18.00;99.90
20658;DHT22;10488;50.846;4.078;2023-07-22T07:31:19;17.90;99.90
20658;DHT22;10488;50.846;4.078;2023-07-22T07:33:45;17.70;99.90
20658;DHT22;10488;50.846;4.078;2023-07-22T07:36:11;17.70;99.90
20658;DHT22;10488;50.846;4.078;2023-07-22T07:38:37;18.00;99.90
20658;DHT22;10488;50.846;4.078;2023-07-22T07:41:05;18.30;99.90
20658;DHT22;10488;50.846;4.078;2023-07-22T07:43:34;18.30;99.90
20658;DHT22;10488;50.846;4.078;2023-07-22T07:46:22;18.30;99.90
20658;DHT22;10488;50.846;4.078;2023-07-22T07:48:52;18.40;99.90
20658;DHT22;10488;50.846;4.078;2023-07-22T07:51:20;18.60;99.90
20658;DHT22;10488;50.846;4.078;2023-07-22T07:53:46;18.60;99.90
20658;DHT22;10488;50.846;4.078;2023-07-22T07:56:13;18.60;99.90
20658;DHT22;10488;50.846;4.078;2023-07-22T07:58:39;19.00;99.90
20658;DHT22;10488;50.846;4.078;2023-07-22T08:01:05;18.80;99.90
20658;DHT22;10488;50.846;4.078;2023-07-22T08:03:33;18.90;99.90
20658;DHT22;10488;50.846;4.078;2023-07-22T08:05:59;19.10;99.90
20658;DHT22;10488;50.846;4.078;2023-07-22T08:08:24;19.10;99.90
20658;DHT22;10488;50.846;4.078;2023-07-22T08:11:10;19.20;99.90
20658;DHT22;10488;50.846;4.078;2023-07-22T08:13:36;19.00;99.90
20658;DHT22;10488;50.846;4.078;2023-07-22T08:16:03;19.00;99.90
20658;DHT22;10488;50.846;4.078;2023-07-22T08:18:30;18.90;99.90
20658;DHT22;10488;50.846;4.078;2023-07-22T08:20:56;19.00;99.90
20658;DHT22;10488;50.846;4.078;2023-07-22T08:23:22;19.50;99.90
20658;DHT22;10488;50.846;4.078;2023-07-22T08:25:48;19.50;99.90
20658;DHT22;10488;50.846;4.078;2023-07-22T08:28:14;19.70;99.90
20658;DHT22;10488;50.846;4.078;2023-07-22T08:30:40;19.80;99.90
20658;DHT22;10488;50.846;4.078;2023-07-22T08:33:06;19.90;99.90
20658;DHT22;10488;50.846;4.078;2023-07-22T08:35:37;20.30;99.90
20658;DHT22;10488;50.846;4.078;2023-07-22T08:38:03;20.50;99.90
20658;DHT22;10488;50.846;4.078;2023-07-22T08:40:36;20.20;99.90
20658;DHT22;10488;50.846;4.078;2023-07-22T08:43:03;20.50;99.90
20658;DHT22;10488;50.846;4.078;2023-07-22T08:45:31;21.00;99.90
20658;DHT22;10488;50.846;4.078;2023-07-22T08:47:58;21.00;99.90
20658;DHT22;10488;50.846;4.078;2023-07-22T08:50:30;21.10;99.90
20658;DHT22;10488;50.846;4.078;2023-07-22T08:53:00;21.20;99.90
20658;DHT22;10488;50.846;4.078;2023-07-22T08:55:26;21.20;99.90
20658;DHT22;10488;50.846;4.078;2023-07-22T08:57:52;21.40;99.90
20658;DHT22;10488;50.846;4.078;2023-07-22T09:00:19;21.60;99.90
20658;DHT22;10488;50.846;4.078;2023-07-22T09:02:45;21.50;99.90
20658;DHT22;10488;50.846;4.078;2023-07-22T09:05:11;21.60;99.90
20658;DHT22;10488;50.846;4.078;2023-07-22T09:07:37;22.10;99.90
20658;DHT22;10488;50.846;4.078;2023-07-22T09:10:05;22.10;99.90
20658;DHT22;10488;50.846;4.078;2023-07-22T09:12:33;22.50;99.90
20658;DHT22;10488;50.846;4.078;2023-07-22T09:15:07;22.60;99.90
20658;DHT22;10488;50.846;4.078;2023-07-22T09:17:34;23.40;99.90
20658;DHT22;10488;50.846;4.078;2023-07-22T09:20:02;23.20;99.90
20658;DHT22;10488;50.846;4.078;2023-07-22T09:22:29;22.50;99.90
20658;DHT22;10488;50.846;4.078;2023-07-22T09:25:21;22.70;99.90
20658;DHT22;10488;50.846;4.078;2023-07-22T09:27:48;22.70;99.90
20658;DHT22;10488;50.846;4.078;2023-07-22T09:30:25;22.60;99.90
20658;DHT22;10488;50.846;4.078;2023-07-22T09:32:53;22.70;99.90
20658;DHT22;10488;50.846;4.078;2023-07-22T09:35:19;23.00;99.90
20658;DHT22;10488;50.846;4.078;2023-07-22T09:37:45;23.20;99.90
20658;DHT22;10488;50.846;4.078;2023-07-22T09:40:18;23.00;99.90
20658;DHT22;10488;50.846;4.078;2023-07-22T09:42:49;23.60;99.90
20658;DHT22;10488;50.846;4.078;2023-07-22T09:45:17;24.30;99.90
20658;DHT22;10488;50.846;4.078;2023-07-22T09:47:45;24.10;99.90
20658;DHT22;10488;50.846;4.078;2023-07-22T09:50:18;23.80;99.90
20658;DHT22;10488;50.846;4.078;2023-07-22T09:52:46;24.20;99.90
20658;DHT22;10488;50.846;4.078;2023-07-22T09:55:25;23.90;99.90
20658;DHT22;10488;50.846;4.078;2023-07-22T09:57:54;23.50;99.90
20658;DHT22;10488;50.846;4.078;2023-07-22T10:00:20;23.60;99.90
20658;DHT22;10488;50.846;4.078;2023-07-22T10:02:47;23.30;99.90
20658;DHT22;10488;50.846;4.078;2023-07-22T10:05:18;23.50;99.90
20658;DHT22;10488;50.846;4.078;2023-07-22T10:07:53;23.40;99.90
20658;DHT22;10488;50.846;4.078;2023-07-22T10:10:25;23.80;99.90
20658;DHT22;10488;50.846;4.078;2023-07-22T10:12:51;23.70;99.90
20658;DHT22;10488;50.846;4.078;2023-07-22T10:15:17;23.70;99.90
20658;DHT22;10488;50.846;4.078;2023-07-22T10:17:45;23.90;99.90
20658;DHT22;10488;50.846;4.078;2023-07-22T10:20:13;24.60;99.90
20658;DHT22;10488;50.846;4.078;2023-07-22T10:22:46;24.50;99.90
20658;DHT22;10488;50.846;4.078;2023-07-22T10:25:16;24.30;99.90
20658;DHT22;10488;50.846;4.078;2023-07-22T10:27:43;24.10;99.90
20658;DHT22;10488;50.846;4.078;2023-07-22T10:30:10;23.60;99.90
20658;DHT22;10488;50.846;4.078;2023-07-22T10:32:40;23.70;99.90
20658;DHT22;10488;50.846;4.078;2023-07-22T10:35:11;23.70;99.90
20658;DHT22;10488;50.846;4.078;2023-07-22T10:37:39;23.40;99.90
20658;DHT22;10488;50.846;4.078;2023-07-22T10:40:28;23.30;99.90
20658;DHT22;10488;50.846;4.078;2023-07-22T10:45:28;23.60;99.90
20658;DHT22;10488;50.846;4.078;2023-07-22T10:50:43;22.70;99.90
20658;DHT22;10488;50.846;4.078;2023-07-22T10:53:11;23.10;99.90
20658;DHT22;10488;50.846;4.078;2023-07-22T10:56:02;23.30;99.90
20658;DHT22;10488;50.846;4.078;2023-07-22T11:06:40;23.60;99.90
20658;DHT22;10488;50.846;4.078;2023-07-22T11:12:06;23.50;99.90
20658;DHT22;10488;50.846;4.078;2023-07-22T11:14:34;23.40;99.90
20658;DHT22;10488;50.846;4.078;2023-07-22T11:17:01;23.30;99.90
20658;DHT22;10488;50.846;4.078;2023-07-22T11:19:29;23.40;99.90
20658;DHT22;10488;50.846;4.078;2023-07-22T11:21:56;23.70;99.90
20658;DHT22;10488;50.846;4.078;2023-07-22T11:24:23;24.00;99.90
20658;DHT22;10488;50.846;4.078;2023-07-22T11:26:50;23.80;99.90
20658;DHT22;10488;50.846;4.078;2023-07-22T11:29:17;23.90;99.90
20658;DHT22;10488;50.846;4.078;2023-07-22T11:31:44;24.20;99.90
20658;DHT22;10488;50.846;4.078;2023-07-22T11:34:22;24.20;99.90
20658;DHT22;10488;50.846;4.078;2023-07-22T11:36:49;24.60;99.90
20658;DHT22;10488;50.846;4.078;2023-07-22T11:39:17;24.80;99.90
20658;DHT22;10488;50.846;4.078;2023-07-22T11:41:44;24.50;99.90
20658;DHT22;10488;50.846;4.078;2023-07-22T11:44:13;24.40;99.90
20658;DHT22;10488;50.846;4.078;2023-07-22T11:51:55;24.10;99.90
20658;DHT22;10488;50.846;4.078;2023-07-22T11:54:22;23.80;99.90
20658;DHT22;10488;50.846;4.078;2023-07-22T11:56:47;23.60;99.90
20658;DHT22;10488;50.846;4.078;2023-07-22T11:59:13;23.90;99.90
20658;DHT22;10488;50.846;4.078;2023-07-22T12:01:39;23.90;99.90
20658;DHT22;10488;50.846;4.078;2023-07-22T12:04:12;23.90;99.90
20658;DHT22;10488;50.846;4.078;2023-07-22T12:06:38;23.90;99.90
20658;DHT22;10488;50.846;4.078;2023-07-22T12:09:04;23.80;99.90
20658;DHT22;10488;50.846;4.078;2023-07-22T12:11:32;23.80;99.90
20658;DHT22;10488;50.846;4.078;2023-07-22T12:14:08;23.80;99.90
20658;DHT22;10488;50.846;4.078;2023-07-22T12:16:40;24.00;99.90
20658;DHT22;10488;50.846;4.078;2023-07-22T12:19:08;23.80;99.90
20658;DHT22;10488;50.846;4.078;2023-07-22T12:21:34;23.40;99.90
20658;DHT22;10488;50.846;4.078;2023-07-22T12:24:00;23.80;99.90
20658;DHT22;10488;50.846;4.078;2023-07-22T12:26:26;24.10;99.90
20658;DHT22;10488;50.846;4.078;2023-07-22T12:28:52;24.20;99.90
20658;DHT22;10488;50.846;4.078;2023-07-22T12:31:18;24.60;99.90
20658;DHT22;10488;50.846;4.078;2023-07-22T12:33:43;24.70;99.90
20658;DHT22;10488;50.846;4.078;2023-07-22T12:36:09;24.60;99.90
20658;DHT22;10488;50.846;4.078;2023-07-22T12:38:35;24.40;99.90
20658;DHT22;10488;50.846;4.078;2023-07-22T12:41:01;23.70;99.90
20658;DHT22;10488;50.846;4.078;2023-07-22T12:43:27;23.50;99.90
20658;DHT22;10488;50.846;4.078;2023-07-22T12:45:53;23.50;99.90
20658;DHT22;10488;50.846;4.078;2023-07-22T12:48:18;23.50;99.90
20658;DHT22;10488;50.846;4.078;2023-07-22T12:50:45;23.40;99.90
20658;DHT22;10488;50.846;4.078;2023-07-22T12:53:10;23.30;99.90
20658;DHT22;10488;50.846;4.078;2023-07-22T12:55:36;23.60;99.90
20658;DHT22;10488;50.846;4.078;2023-07-22T12:58:02;23.50;99.90
20658;DHT22;10488;50.846;4.078;2023-07-22T13:00:28;23.10;99.90
20658;DHT22;10488;50.846;4.078;2023-07-22T13:02:53;23.10;99.90
20658;DHT22;10488;50.846;4.078;2023-07-22T13:05:19;23.30;99.90
20658;DHT22;10488;50.846;4.078;2023-07-22T13:07:45;23.40;99.90
20658;DHT22;10488;50.846;4.078;2023-07-22T13:10:11;23.50;99.90
20658;DHT22;10488;50.846;4.078;2023-07-22T13:12:39;23.30;99.90
20658;DHT22;10488;50.846;4.078;2023-07-22T13:15:05;23.20;99.90
20658;DHT22;10488;50.846;4.078;2023-07-22T13:17:31;23.40;99.90
20658;DHT22;10488;50.846;4.078;2023-07-22T13:19:57;23.20;99.90
20658;DHT22;10488;50.846;4.078;2023-07-22T13:22:23;22.90;99.90
20658;DHT22;10488;50.846;4.078;2023-07-22T13:24:48;22.60;99.90
20658;DHT22;10488;50.846;4.078;2023-07-22T13:27:14;22.80;99.90
20658;DHT22;10488;50.846;4.078;2023-07-22T13:29:39;22.90;99.90
20658;DHT22;10488;50.846;4.078;2023-07-22T13:32:05;23.30;99.90
20658;DHT22;10488;50.846;4.078;2023-07-22T13:34:32;23.50;99.90
20658;DHT22;10488;50.846;4.078;2023-07-22T13:36:57;23.30;99.90
20658;DHT22;10488;50.846;4.078;2023-07-22T13:39:23;23.10;99.90
20658;DHT22;10488;50.846;4.078;2023-07-22T13:41:49;22.90;99.90
20658;DHT22;10488;50.846;4.078;2023-07-22T13:44:16;22.80;99.90
20658;DHT22;10488;50.846;4.078;2023-07-22T13:46:42;22.50;99.90
20658;DHT22;10488;50.846;4.078;2023-07-22T13:49:07;22.40;99.90
20658;DHT22;10488;50.846;4.078;2023-07-22T13:51:33;22.20;99.90
20658;DHT22;10488;50.846;4.078;2023-07-22T13:53:59;22.10;99.90
20658;DHT22;10488;50.846;4.078;2023-07-22T13:56:25;21.80;99.90
20658;DHT22;10488;50.846;4.078;2023-07-22T13:58:51;21.60;99.90
20658;DHT22;10488;50.846;4.078;2023-07-22T14:01:17;21.70;99.90
20658;DHT22;10488;50.846;4.078;2023-07-22T14:03:43;21.70;99.90
20658;DHT22;10488;50.846;4.078;2023-07-22T14:06:09;21.80;99.90
20658;DHT22;10488;50.846;4.078;2023-07-22T14:08:34;21.50;99.90
20658;DHT22;10488;50.846;4.078;2023-07-22T14:11:00;21.60;99.90
20658;DHT22;10488;50.846;4.078;2023-07-22T14:13:26;21.90;99.90
20658;DHT22;10488;50.846;4.078;2023-07-22T14:15:51;22.10;99.90
20658;DHT22;10488;50.846;4.078;2023-07-22T14:18:18;21.70;99.90
20658;DHT22;10488;50.846;4.078;2023-07-22T14:20:44;21.80;99.90
20658;DHT22;10488;50.846;4.078;2023-07-22T14:23:14;21.90;99.90
20658;DHT22;10488;50.846;4.078;2023-07-22T14:25:39;22.10;99.90
20658;DHT22;10488;50.846;4.078;2023-07-22T14:28:05;22.00;99.90
20658;DHT22;10488;50.846;4.078;2023-07-22T14:30:31;22.00;99.90
20658;DHT22;10488;50.846;4.078;2023-07-22T14:32:57;22.50;99.90
20658;DHT22;10488;50.846;4.078;2023-07-22T14:35:22;22.80;99.90
20658;DHT22;10488;50.846;4.078;2023-07-22T14:37:48;23.00;99.90
20658;DHT22;10488;50.846;4.078;2023-07-22T14:40:14;23.10;99.90
20658;DHT22;10488;50.846;4.078;2023-07-22T14:42:40;22.90;99.90
20658;DHT22;10488;50.846;4.078;2023-07-22T14:45:06;23.00;99.90
20658;DHT22;10488;50.846;4.078;2023-07-22T14:47:32;23.00;99.90
20658;DHT22;10488;50.846;4.078;2023-07-22T14:49:58;23.20;99.90
20658;DHT22;10488;50.846;4.078;2023-07-22T14:52:23;23.70;99.90
20658;DHT22;10488;50.846;4.078;2023-07-22T14:54:49;23.60;99.90
20658;DHT22;10488;50.846;4.078;2023-07-22T14:57:18;23.70;99.90
20658;DHT22;10488;50.846;4.078;2023-07-22T14:59:44;23.50;99.90
20658;DHT22;10488;50.846;4.078;2023-07-22T15:02:09;23.20;99.90
20658;DHT22;10488;50.846;4.078;2023-07-22T15:04:36;23.30;99.90
20658;DHT22;10488;50.846;4.078;2023-07-22T15:07:02;23.20;99.90
20658;DHT22;10488;50.846;4.078;2023-07-22T15:09:27;23.50;99.90
20658;DHT22;10488;50.846;4.078;2023-07-22T15:11:53;23.30;99.90
20658;DHT22;10488;50.846;4.078;2023-07-22T15:14:19;23.10;99.90
20658;DHT22;10488;50.846;4.078;2023-07-22T15:16:44;23.00;99.90
20658;DHT22;10488;50.846;4.078;2023-07-22T15:19:11;22.70;99.90
20658;DHT22;10488;50.846;4.078;2023-07-22T15:21:36;22.40;99.90
20658;DHT22;10488;50.846;4.078;2023-07-22T15:24:02;22.60;99.90
20658;DHT22;10488;50.846;4.078;2023-07-22T15:26:27;22.70;99.90
20658;DHT22;10488;50.846;4.078;2023-07-22T15:28:53;22.70;99.90
20658;DHT22;10488;50.846;4.078;2023-07-22T15:31:19;22.90;99.90
20658;DHT22;10488;50.846;4.078;2023-07-22T15:33:45;22.70;99.90
20658;DHT22;10488;50.846;4.078;2023-07-22T15:36:11;22.70;99.90
20658;DHT22;10488;50.846;4.078;2023-07-22T15:38:37;22.70;99.90
20658;DHT22;10488;50.846;4.078;2023-07-22T15:41:03;22.70;99.90
20658;DHT22;10488;50.846;4.078;2023-07-22T15:43:28;22.60;99.90
20658;DHT22;10488;50.846;4.078;2023-07-22T15:45:54;22.70;99.90
20658;DHT22;10488;50.846;4.078;2023-07-22T15:48:20;22.60;99.90
20658;DHT22;10488;50.846;4.078;2023-07-22T15:50:46;22.60;99.90